sensor_id;sensor_type;location;lat;lon;timestamp;P1;durP1;ratioP1;P2;durP2;ratioP2
52180;SDS011;38158;53.338;6.514;2023-07-22T00:01:18;7.80;;;3.15;;
52180;SDS011;38158;53.338;6.514;2023-07-22T00:03:44;7.45;;;2.83;;
52180;SDS011;38158;53.338;6.514;2023-07-22T00:06:10;6.72;;;2.65;;
52180;SDS011;38158;53.338;6.514;2023-07-22T00:08:37;7.88;;;2.50;;
52180;SDS011;38158;53.338;6.514;2023-07-22T00:11:03;9.10;;;2.63;;
52180;SDS011;38158;53.338;6.514;2023-07-22T00:13:30;6.40;;;2.15;;
52180;SDS011;38158;53.338;6.514;2023-07-22T00:15:56;6.90;;;2.50;;
52180;SDS011;38158;53.338;6.514;2023-07-22T00:18:24;8.13;;;2.83;;
52180;SDS011;38158;53.338;6.514;2023-07-22T00:20:52;4.88;;;2.33;;
52180;SDS011;38158;53.338;6.514;2023-07-22T00:23:18;6.27;;;2.70;;
52180;SDS011;38158;53.338;6.514;2023-07-22T00:25:45;8.87;;;2.60;;
52180;SDS011;38158;53.338;6.514;2023-07-22T00:28:14;8.00;;;2.20;;
52180;SDS011;38158;53.338;6.514;2023-07-22T00:30:39;5.60;;;2.40;;
52180;SDS011;38158;53.338;6.514;2023-07-22T00:33:06;6.80;;;2.17;;
52180;SDS011;38158;53.338;6.514;2023-07-22T00:35:32;4.88;;;2.00;;
52180;SDS011;38158;53.338;6.514;2023-07-22T00:37:59;6.63;;;2.60;;
52180;SDS011;38158;53.338;6.514;2023-07-22T00:40:28;4.72;;;2.20;;
52180;SDS011;38158;53.338;6.514;2023-07-22T00:42:57;7.40;;;2.70;;
52180;SDS011;38158;53.338;6.514;2023-07-22T00:45:24;5.78;;;2.60;;
52180;SDS011;38158;53.338;6.514;2023-07-22T00:47:49;7.40;;;3.03;;
52180;SDS011;38158;53.338;6.514;2023-07-22T00:50:15;5.88;;;2.70;;
52180;SDS011;38158;53.338;6.514;2023-07-22T00:52:41;6.75;;;2.28;;
52180;SDS011;38158;53.338;6.514;2023-07-22T00:55:07;5.97;;;2.53;;
52180;SDS011;38158;53.338;6.514;2023-07-22T00:57:33;5.03;;;2.22;;
52180;SDS011;38158;53.338;6.514;2023-07-22T00:59:59;6.82;;;2.70;;
52180;SDS011;38158;53.338;6.514;2023-07-22T01:02:24;5.50;;;2.55;;
52180;SDS011;38158;53.338;6.514;2023-07-22T01:04:50;6.45;;;2.35;;
52180;SDS011;38158;53.338;6.514;2023-07-22T01:07:17;6.03;;;2.60;;
52180;SDS011;38158;53.338;6.514;2023-07-22T01:09:43;6.32;;;2.15;;
52180;SDS011;38158;53.338;6.514;2023-07-22T01:12:10;5.53;;;2.20;;
52180;SDS011;38158;53.338;6.514;2023-07-22T01:14:37;5.00;;;2.65;;
52180;SDS011;38158;53.338;6.514;2023-07-22T01:17:05;7.90;;;2.58;;
52180;SDS011;38158;53.338;6.514;2023-07-22T01:19:33;6.70;;;2.20;;
52180;SDS011;38158;53.338;6.514;2023-07-22T01:22:03;7.88;;;2.70;;
52180;SDS011;38158;53.338;6.514;2023-07-22T01:24:31;7.72;;;2.05;;
52180;SDS011;38158;53.338;6.514;2023-07-22T01:26:57;5.10;;;2.40;;
52180;SDS011;38158;53.338;6.514;2023-07-22T01:29:23;5.53;;;2.33;;
52180;SDS011;38158;53.338;6.514;2023-07-22T01:31:50;5.88;;;2.35;;
52180;SDS011;38158;53.338;6.514;2023-07-22T01:34:17;5.15;;;2.35;;
52180;SDS011;38158;53.338;6.514;2023-07-22T01:36:44;5.63;;;2.30;;
52180;SDS011;38158;53.338;6.514;2023-07-22T01:39:12;9.15;;;2.45;;
52180;SDS011;38158;53.338;6.514;2023-07-22T01:41:39;4.63;;;2.30;;
52180;SDS011;38158;53.338;6.514;2023-07-22T01:44:05;6.50;;;2.45;;
52180;SDS011;38158;53.338;6.514;2023-07-22T01:46:31;4.28;;;2.05;;
52180;SDS011;38158;53.338;6.514;2023-07-22T01:48:56;6.70;;;2.72;;
52180;SDS011;38158;53.338;6.514;2023-07-22T01:51:22;8.05;;;3.13;;
52180;SDS011;38158;53.338;6.514;2023-07-22T01:53:48;9.93;;;2.80;;
52180;SDS011;38158;53.338;6.514;2023-07-22T01:56:14;6.33;;;2.87;;
52180;SDS011;38158;53.338;6.514;2023-07-22T01:58:41;6.13;;;2.63;;
52180;SDS011;38158;53.338;6.514;2023-07-22T02:01:07;8.15;;;3.15;;
52180;SDS011;38158;53.338;6.514;2023-07-22T02:03:33;6.53;;;3.05;;
52180;SDS011;38158;53.338;6.514;2023-07-22T02:06:02;5.00;;;2.63;;
52180;SDS011;38158;53.338;6.514;2023-07-22T02:08:29;6.63;;;3.13;;
52180;SDS011;38158;53.338;6.514;2023-07-22T02:10:55;9.25;;;3.33;;
52180;SDS011;38158;53.338;6.514;2023-07-22T02:13:29;7.85;;;2.90;;
52180;SDS011;38158;53.338;6.514;2023-07-22T02:15:55;10.10;;;3.28;;
52180;SDS011;38158;53.338;6.514;2023-07-22T02:18:21;6.63;;;2.85;;
52180;SDS011;38158;53.338;6.514;2023-07-22T02:20:46;8.50;;;3.45;;
52180;SDS011;38158;53.338;6.514;2023-07-22T02:23:13;8.23;;;3.17;;
52180;SDS011;38158;53.338;6.514;2023-07-22T02:25:39;10.05;;;3.28;;
52180;SDS011;38158;53.338;6.514;2023-07-22T02:28:05;14.90;;;3.58;;
52180;SDS011;38158;53.338;6.514;2023-07-22T02:30:33;8.85;;;3.88;;
52180;SDS011;38158;53.338;6.514;2023-07-22T02:33:00;5.43;;;3.22;;
52180;SDS011;38158;53.338;6.514;2023-07-22T02:35:27;9.15;;;3.78;;
52180;SDS011;38158;53.338;6.514;2023-07-22T02:37:53;6.30;;;3.47;;
52180;SDS011;38158;53.338;6.514;2023-07-22T02:40:18;6.63;;;3.50;;
52180;SDS011;38158;53.338;6.514;2023-07-22T02:42:44;9.23;;;3.55;;
52180;SDS011;38158;53.338;6.514;2023-07-22T02:45:10;8.73;;;3.45;;
52180;SDS011;38158;53.338;6.514;2023-07-22T02:47:36;6.68;;;3.47;;
52180;SDS011;38158;53.338;6.514;2023-07-22T02:50:02;6.07;;;3.35;;
52180;SDS011;38158;53.338;6.514;2023-07-22T02:52:30;9.18;;;3.70;;
52180;SDS011;38158;53.338;6.514;2023-07-22T02:55:05;8.52;;;3.78;;
52180;SDS011;38158;53.338;6.514;2023-07-22T02:57:33;9.38;;;4.32;;
52180;SDS011;38158;53.338;6.514;2023-07-22T02:59:59;7.35;;;3.45;;
52180;SDS011;38158;53.338;6.514;2023-07-22T03:02:25;6.88;;;3.55;;
52180;SDS011;38158;53.338;6.514;2023-07-22T03:04:51;7.10;;;3.35;;
52180;SDS011;38158;53.338;6.514;2023-07-22T03:07:17;10.82;;;3.53;;
52180;SDS011;38158;53.338;6.514;2023-07-22T03:09:43;14.23;;;3.65;;
52180;SDS011;38158;53.338;6.514;2023-07-22T03:12:08;7.38;;;3.03;;
52180;SDS011;38158;53.338;6.514;2023-07-22T03:14:34;9.50;;;3.95;;
52180;SDS011;38158;53.338;6.514;2023-07-22T03:17:02;6.15;;;3.58;;
52180;SDS011;38158;53.338;6.514;2023-07-22T03:19:29;8.23;;;3.80;;
52180;SDS011;38158;53.338;6.514;2023-07-22T03:21:55;7.57;;;3.50;;
52180;SDS011;38158;53.338;6.514;2023-07-22T03:24:20;11.00;;;3.40;;
52180;SDS011;38158;53.338;6.514;2023-07-22T03:26:46;6.75;;;3.33;;
52180;SDS011;38158;53.338;6.514;2023-07-22T03:29:12;8.57;;;3.78;;
52180;SDS011;38158;53.338;6.514;2023-07-22T03:31:37;6.20;;;3.28;;
52180;SDS011;38158;53.338;6.514;2023-07-22T03:34:04;9.00;;;3.77;;
52180;SDS011;38158;53.338;6.514;2023-07-22T03:36:29;9.07;;;4.65;;
52180;SDS011;38158;53.338;6.514;2023-07-22T03:38:58;9.23;;;4.10;;
52180;SDS011;38158;53.338;6.514;2023-07-22T03:41:25;5.90;;;3.63;;
52180;SDS011;38158;53.338;6.514;2023-07-22T03:43:50;11.85;;;3.30;;
52180;SDS011;38158;53.338;6.514;2023-07-22T03:46:16;6.95;;;3.25;;
52180;SDS011;38158;53.338;6.514;2023-07-22T03:48:42;7.63;;;3.60;;
52180;SDS011;38158;53.338;6.514;2023-07-22T03:51:08;7.60;;;3.67;;
52180;SDS011;38158;53.338;6.514;2023-07-22T03:53:33;7.25;;;3.90;;
52180;SDS011;38158;53.338;6.514;2023-07-22T03:55:59;7.97;;;3.75;;
52180;SDS011;38158;53.338;6.514;2023-07-22T03:58:25;14.57;;;3.63;;
52180;SDS011;38158;53.338;6.514;2023-07-22T04:00:50;8.90;;;4.57;;
52180;SDS011;38158;53.338;6.514;2023-07-22T04:03:16;9.43;;;5.30;;
52180;SDS011;38158;53.338;6.514;2023-07-22T04:05:42;8.77;;;5.20;;
52180;SDS011;38158;53.338;6.514;2023-07-22T04:08:08;8.55;;;5.18;;
52180;SDS011;38158;53.338;6.514;2023-07-22T04:10:33;8.88;;;5.30;;
52180;SDS011;38158;53.338;6.514;2023-07-22T04:12:59;11.13;;;6.07;;
52180;SDS011;38158;53.338;6.514;2023-07-22T04:15:25;11.13;;;6.18;;
52180;SDS011;38158;53.338;6.514;2023-07-22T04:17:50;8.60;;;5.18;;
52180;SDS011;38158;53.338;6.514;2023-07-22T04:20:16;9.48;;;5.40;;
52180;SDS011;38158;53.338;6.514;2023-07-22T04:22:43;11.45;;;5.95;;
52180;SDS011;38158;53.338;6.514;2023-07-22T04:25:09;10.68;;;5.43;;
52180;SDS011;38158;53.338;6.514;2023-07-22T04:27:34;12.10;;;5.70;;
52180;SDS011;38158;53.338;6.514;2023-07-22T04:30:00;9.02;;;4.90;;
52180;SDS011;38158;53.338;6.514;2023-07-22T04:32:26;9.23;;;5.30;;
52180;SDS011;38158;53.338;6.514;2023-07-22T04:34:52;8.38;;;4.80;;
52180;SDS011;38158;53.338;6.514;2023-07-22T04:37:18;9.50;;;5.05;;
52180;SDS011;38158;53.338;6.514;2023-07-22T04:39:46;8.88;;;4.80;;
52180;SDS011;38158;53.338;6.514;2023-07-22T04:42:13;8.43;;;4.85;;
52180;SDS011;38158;53.338;6.514;2023-07-22T04:44:39;9.20;;;4.07;;
52180;SDS011;38158;53.338;6.514;2023-07-22T04:47:06;8.73;;;4.38;;
52180;SDS011;38158;53.338;6.514;2023-07-22T04:49:31;7.50;;;3.92;;
52180;SDS011;38158;53.338;6.514;2023-07-22T04:51:57;8.00;;;4.03;;
52180;SDS011;38158;53.338;6.514;2023-07-22T04:54:23;9.20;;;4.32;;
52180;SDS011;38158;53.338;6.514;2023-07-22T04:56:48;9.20;;;4.45;;
52180;SDS011;38158;53.338;6.514;2023-07-22T04:59:14;5.95;;;3.25;;
52180;SDS011;38158;53.338;6.514;2023-07-22T05:01:40;8.63;;;3.90;;
52180;SDS011;38158;53.338;6.514;2023-07-22T05:04:06;7.88;;;3.20;;
52180;SDS011;38158;53.338;6.514;2023-07-22T05:06:32;10.07;;;4.07;;
52180;SDS011;38158;53.338;6.514;2023-07-22T05:08:58;5.75;;;3.25;;
52180;SDS011;38158;53.338;6.514;2023-07-22T05:11:24;8.10;;;3.55;;
52180;SDS011;38158;53.338;6.514;2023-07-22T05:13:49;7.32;;;3.58;;
52180;SDS011;38158;53.338;6.514;2023-07-22T05:16:15;7.88;;;3.67;;
52180;SDS011;38158;53.338;6.514;2023-07-22T05:18:41;9.40;;;4.10;;
52180;SDS011;38158;53.338;6.514;2023-07-22T05:21:07;9.60;;;4.07;;
52180;SDS011;38158;53.338;6.514;2023-07-22T05:23:33;7.50;;;3.60;;
52180;SDS011;38158;53.338;6.514;2023-07-22T05:25:59;7.38;;;4.00;;
52180;SDS011;38158;53.338;6.514;2023-07-22T05:28:24;8.45;;;4.07;;
52180;SDS011;38158;53.338;6.514;2023-07-22T05:30:50;10.07;;;4.43;;
52180;SDS011;38158;53.338;6.514;2023-07-22T05:33:16;11.25;;;4.72;;
52180;SDS011;38158;53.338;6.514;2023-07-22T05:35:42;10.77;;;5.13;;
52180;SDS011;38158;53.338;6.514;2023-07-22T05:38:07;10.77;;;4.63;;
52180;SDS011;38158;53.338;6.514;2023-07-22T05:40:33;10.80;;;5.28;;
52180;SDS011;38158;53.338;6.514;2023-07-22T05:42:59;10.45;;;4.63;;
52180;SDS011;38158;53.338;6.514;2023-07-22T05:45:24;10.18;;;4.80;;
52180;SDS011;38158;53.338;6.514;2023-07-22T05:47:50;11.05;;;5.20;;
52180;SDS011;38158;53.338;6.514;2023-07-22T05:50:16;9.88;;;5.38;;
52180;SDS011;38158;53.338;6.514;2023-07-22T05:52:41;10.45;;;5.72;;
52180;SDS011;38158;53.338;6.514;2023-07-22T05:55:08;10.53;;;5.03;;
52180;SDS011;38158;53.338;6.514;2023-07-22T05:57:34;7.85;;;4.32;;
52180;SDS011;38158;53.338;6.514;2023-07-22T06:00:00;11.63;;;5.50;;
52180;SDS011;38158;53.338;6.514;2023-07-22T06:02:25;13.73;;;6.50;;
52180;SDS011;38158;53.338;6.514;2023-07-22T06:04:51;9.48;;;5.43;;
52180;SDS011;38158;53.338;6.514;2023-07-22T06:07:17;11.68;;;5.60;;
52180;SDS011;38158;53.338;6.514;2023-07-22T06:09:43;11.38;;;6.20;;
52180;SDS011;38158;53.338;6.514;2023-07-22T06:12:09;12.40;;;6.28;;
52180;SDS011;38158;53.338;6.514;2023-07-22T06:14:34;13.32;;;6.88;;
52180;SDS011;38158;53.338;6.514;2023-07-22T06:17:00;13.43;;;6.78;;
52180;SDS011;38158;53.338;6.514;2023-07-22T06:19:26;11.30;;;6.28;;
52180;SDS011;38158;53.338;6.514;2023-07-22T06:21:52;11.00;;;5.72;;
52180;SDS011;38158;53.338;6.514;2023-07-22T06:24:17;12.02;;;6.55;;
52180;SDS011;38158;53.338;6.514;2023-07-22T06:26:43;11.23;;;6.13;;
52180;SDS011;38158;53.338;6.514;2023-07-22T06:29:09;9.48;;;5.25;;
52180;SDS011;38158;53.338;6.514;2023-07-22T06:31:34;11.43;;;6.25;;
52180;SDS011;38158;53.338;6.514;2023-07-22T06:34:00;11.00;;;6.45;;
52180;SDS011;38158;53.338;6.514;2023-07-22T06:36:26;13.20;;;5.70;;
52180;SDS011;38158;53.338;6.514;2023-07-22T06:38:52;11.18;;;5.97;;
52180;SDS011;38158;53.338;6.514;2023-07-22T06:41:17;11.93;;;6.60;;
52180;SDS011;38158;53.338;6.514;2023-07-22T06:43:44;10.40;;;5.27;;
52180;SDS011;38158;53.338;6.514;2023-07-22T06:46:10;10.07;;;5.57;;
52180;SDS011;38158;53.338;6.514;2023-07-22T06:48:35;10.75;;;5.97;;
52180;SDS011;38158;53.338;6.514;2023-07-22T06:51:01;12.50;;;6.45;;
52180;SDS011;38158;53.338;6.514;2023-07-22T06:53:27;12.13;;;5.90;;
52180;SDS011;38158;53.338;6.514;2023-07-22T06:55:52;11.13;;;6.53;;
52180;SDS011;38158;53.338;6.514;2023-07-22T06:58:21;13.40;;;5.50;;
52180;SDS011;38158;53.338;6.514;2023-07-22T07:00:48;12.43;;;6.68;;
52180;SDS011;38158;53.338;6.514;2023-07-22T07:03:17;11.32;;;5.72;;
52180;SDS011;38158;53.338;6.514;2023-07-22T07:05:43;11.93;;;6.22;;
52180;SDS011;38158;53.338;6.514;2023-07-22T07:08:08;12.32;;;6.10;;
52180;SDS011;38158;53.338;6.514;2023-07-22T07:10:38;12.90;;;6.85;;
52180;SDS011;38158;53.338;6.514;2023-07-22T07:13:06;12.48;;;7.03;;
52180;SDS011;38158;53.338;6.514;2023-07-22T07:15:32;12.52;;;6.30;;
52180;SDS011;38158;53.338;6.514;2023-07-22T07:17:58;11.82;;;6.25;;
52180;SDS011;38158;53.338;6.514;2023-07-22T07:20:23;10.63;;;6.25;;
52180;SDS011;38158;53.338;6.514;2023-07-22T07:22:49;13.25;;;7.30;;
52180;SDS011;38158;53.338;6.514;2023-07-22T07:25:15;11.25;;;7.10;;
52180;SDS011;38158;53.338;6.514;2023-07-22T07:27:41;12.30;;;7.55;;
52180;SDS011;38158;53.338;6.514;2023-07-22T07:30:07;12.77;;;7.75;;
52180;SDS011;38158;53.338;6.514;2023-07-22T07:32:33;13.25;;;7.93;;
52180;SDS011;38158;53.338;6.514;2023-07-22T07:34:59;13.35;;;8.20;;
52180;SDS011;38158;53.338;6.514;2023-07-22T07:37:25;14.65;;;9.02;;
52180;SDS011;38158;53.338;6.514;2023-07-22T07:39:51;15.27;;;7.45;;
52180;SDS011;38158;53.338;6.514;2023-07-22T07:42:17;13.73;;;8.13;;
52180;SDS011;38158;53.338;6.514;2023-07-22T07:44:43;11.07;;;7.15;;
52180;SDS011;38158;53.338;6.514;2023-07-22T07:47:08;13.10;;;8.25;;
52180;SDS011;38158;53.338;6.514;2023-07-22T07:49:35;15.75;;;8.68;;
52180;SDS011;38158;53.338;6.514;2023-07-22T07:52:01;12.18;;;6.90;;
52180;SDS011;38158;53.338;6.514;2023-07-22T07:54:26;13.13;;;7.35;;
52180;SDS011;38158;53.338;6.514;2023-07-22T07:56:52;13.80;;;7.60;;
52180;SDS011;38158;53.338;6.514;2023-07-22T07:59:18;17.17;;;8.50;;
52180;SDS011;38158;53.338;6.514;2023-07-22T08:01:44;14.32;;;8.48;;
52180;SDS011;38158;53.338;6.514;2023-07-22T08:04:10;14.65;;;8.57;;
52180;SDS011;38158;53.338;6.514;2023-07-22T08:06:35;14.20;;;8.00;;
52180;SDS011;38158;53.338;6.514;2023-07-22T08:09:03;15.27;;;8.90;;
52180;SDS011;38158;53.338;6.514;2023-07-22T08:11:30;14.35;;;7.88;;
52180;SDS011;38158;53.338;6.514;2023-07-22T08:13:56;12.38;;;7.60;;
52180;SDS011;38158;53.338;6.514;2023-07-22T08:16:22;11.30;;;6.57;;
52180;SDS011;38158;53.338;6.514;2023-07-22T08:18:49;10.90;;;7.07;;
52180;SDS011;38158;53.338;6.514;2023-07-22T08:21:15;10.80;;;6.82;;
52180;SDS011;38158;53.338;6.514;2023-07-22T08:23:41;14.48;;;6.25;;
52180;SDS011;38158;53.338;6.514;2023-07-22T08:26:10;13.23;;;7.68;;
52180;SDS011;38158;53.338;6.514;2023-07-22T08:28:36;10.38;;;5.40;;
52180;SDS011;38158;53.338;6.514;2023-07-22T08:31:02;11.27;;;6.80;;
52180;SDS011;38158;53.338;6.514;2023-07-22T08:33:27;11.77;;;7.78;;
52180;SDS011;38158;53.338;6.514;2023-07-22T08:35:53;11.50;;;6.90;;
52180;SDS011;38158;53.338;6.514;2023-07-22T08:38:20;10.80;;;6.60;;
52180;SDS011;38158;53.338;6.514;2023-07-22T08:40:47;11.18;;;7.85;;
52180;SDS011;38158;53.338;6.514;2023-07-22T08:43:19;13.40;;;6.97;;
52180;SDS011;38158;53.338;6.514;2023-07-22T08:45:46;12.77;;;7.85;;
52180;SDS011;38158;53.338;6.514;2023-07-22T08:48:15;11.30;;;6.47;;
52180;SDS011;38158;53.338;6.514;2023-07-22T08:50:50;9.80;;;5.20;;
52180;SDS011;38158;53.338;6.514;2023-07-22T08:53:19;9.98;;;5.70;;
52180;SDS011;38158;53.338;6.514;2023-07-22T08:55:46;11.77;;;6.22;;
52180;SDS011;38158;53.338;6.514;2023-07-22T08:58:13;11.95;;;7.03;;
52180;SDS011;38158;53.338;6.514;2023-07-22T09:00:39;13.55;;;7.35;;
52180;SDS011;38158;53.338;6.514;2023-07-22T09:03:05;13.20;;;7.60;;
52180;SDS011;38158;53.338;6.514;2023-07-22T09:05:32;11.38;;;6.72;;
52180;SDS011;38158;53.338;6.514;2023-07-22T09:07:58;11.52;;;6.75;;
52180;SDS011;38158;53.338;6.514;2023-07-22T09:10:26;14.95;;;8.07;;
52180;SDS011;38158;53.338;6.514;2023-07-22T09:15:19;12.85;;;7.15;;
52180;SDS011;38158;53.338;6.514;2023-07-22T09:17:46;12.35;;;7.00;;
52180;SDS011;38158;53.338;6.514;2023-07-22T09:20:13;11.50;;;7.50;;
52180;SDS011;38158;53.338;6.514;2023-07-22T09:22:43;9.75;;;6.38;;
52180;SDS011;38158;53.338;6.514;2023-07-22T09:25:23;9.13;;;5.90;;
52180;SDS011;38158;53.338;6.514;2023-07-22T09:27:57;12.43;;;6.28;;
52180;SDS011;38158;53.338;6.514;2023-07-22T09:30:26;11.60;;;5.88;;
52180;SDS011;38158;53.338;6.514;2023-07-22T09:32:55;12.43;;;6.25;;
52180;SDS011;38158;53.338;6.514;2023-07-22T09:35:24;9.65;;;5.45;;
52180;SDS011;38158;53.338;6.514;2023-07-22T09:37:57;9.55;;;6.20;;
52180;SDS011;38158;53.338;6.514;2023-07-22T09:40:24;8.75;;;5.85;;
52180;SDS011;38158;53.338;6.514;2023-07-22T09:42:52;11.38;;;6.57;;
52180;SDS011;38158;53.338;6.514;2023-07-22T09:45:21;11.88;;;6.57;;
52180;SDS011;38158;53.338;6.514;2023-07-22T09:47:49;11.13;;;6.53;;
52180;SDS011;38158;53.338;6.514;2023-07-22T09:50:20;14.00;;;7.57;;
52180;SDS011;38158;53.338;6.514;2023-07-22T09:52:51;11.93;;;7.20;;
52180;SDS011;38158;53.338;6.514;2023-07-22T09:55:19;10.48;;;5.68;;
52180;SDS011;38158;53.338;6.514;2023-07-22T09:57:46;12.65;;;6.07;;
52180;SDS011;38158;53.338;6.514;2023-07-22T10:00:15;10.38;;;5.28;;
52180;SDS011;38158;53.338;6.514;2023-07-22T10:02:44;13.38;;;6.80;;
52180;SDS011;38158;53.338;6.514;2023-07-22T10:05:14;13.05;;;6.63;;
52180;SDS011;38158;53.338;6.514;2023-07-22T10:07:49;11.45;;;5.55;;
52180;SDS011;38158;53.338;6.514;2023-07-22T10:10:17;10.80;;;6.13;;
52180;SDS011;38158;53.338;6.514;2023-07-22T10:12:44;9.25;;;6.20;;
52180;SDS011;38158;53.338;6.514;2023-07-22T10:15:10;11.48;;;6.40;;
52180;SDS011;38158;53.338;6.514;2023-07-22T10:17:38;8.88;;;5.30;;
52180;SDS011;38158;53.338;6.514;2023-07-22T10:20:05;8.80;;;5.65;;
52180;SDS011;38158;53.338;6.514;2023-07-22T10:22:36;9.02;;;5.72;;
52180;SDS011;38158;53.338;6.514;2023-07-22T10:25:05;9.63;;;5.70;;
52180;SDS011;38158;53.338;6.514;2023-07-22T10:27:32;8.63;;;5.13;;
52180;SDS011;38158;53.338;6.514;2023-07-22T10:30:04;11.52;;;6.38;;
52180;SDS011;38158;53.338;6.514;2023-07-22T10:32:50;11.07;;;5.13;;
52180;SDS011;38158;53.338;6.514;2023-07-22T10:37:55;9.38;;;5.57;;
52180;SDS011;38158;53.338;6.514;2023-07-22T10:45:28;8.80;;;5.20;;
52180;SDS011;38158;53.338;6.514;2023-07-22T10:50:41;10.07;;;5.65;;
52180;SDS011;38158;53.338;6.514;2023-07-22T10:53:09;9.50;;;5.43;;
52180;SDS011;38158;53.338;6.514;2023-07-22T10:56:18;10.60;;;6.30;;
52180;SDS011;38158;53.338;6.514;2023-07-22T10:58:32;11.20;;;6.53;;
52180;SDS011;38158;53.338;6.514;2023-07-22T11:01:53;11.43;;;7.05;;
52180;SDS011;38158;53.338;6.514;2023-07-22T11:06:55;18.05;;;7.28;;
52180;SDS011;38158;53.338;6.514;2023-07-22T11:11:55;13.25;;;7.95;;
52180;SDS011;38158;53.338;6.514;2023-07-22T11:14:26;13.15;;;7.90;;
52180;SDS011;38158;53.338;6.514;2023-07-22T11:16:53;12.43;;;7.80;;
52180;SDS011;38158;53.338;6.514;2023-07-22T11:19:20;11.57;;;7.25;;
52180;SDS011;38158;53.338;6.514;2023-07-22T11:21:47;10.43;;;6.25;;
52180;SDS011;38158;53.338;6.514;2023-07-22T11:24:14;9.70;;;6.55;;
52180;SDS011;38158;53.338;6.514;2023-07-22T11:26:41;8.02;;;5.50;;
52180;SDS011;38158;53.338;6.514;2023-07-22T11:29:07;8.05;;;5.15;;
52180;SDS011;38158;53.338;6.514;2023-07-22T11:31:38;7.38;;;4.93;;
52180;SDS011;38158;53.338;6.514;2023-07-22T11:34:08;8.70;;;5.13;;
52180;SDS011;38158;53.338;6.514;2023-07-22T11:36:34;9.63;;;5.85;;
52180;SDS011;38158;53.338;6.514;2023-07-22T11:39:06;8.73;;;4.47;;
52180;SDS011;38158;53.338;6.514;2023-07-22T11:41:33;7.85;;;4.88;;
52180;SDS011;38158;53.338;6.514;2023-07-22T11:44:00;9.45;;;5.45;;
52180;SDS011;38158;53.338;6.514;2023-07-22T11:46:27;9.38;;;5.43;;
52180;SDS011;38158;53.338;6.514;2023-07-22T11:48:53;7.18;;;5.10;;
52180;SDS011;38158;53.338;6.514;2023-07-22T11:51:20;7.38;;;5.03;;
52180;SDS011;38158;53.338;6.514;2023-07-22T11:53:48;9.10;;;5.05;;
52180;SDS011;38158;53.338;6.514;2023-07-22T11:56:22;8.07;;;4.90;;
52180;SDS011;38158;53.338;6.514;2023-07-22T11:58:52;9.38;;;5.38;;
52180;SDS011;38158;53.338;6.514;2023-07-22T12:01:21;7.30;;;5.32;;
52180;SDS011;38158;53.338;6.514;2023-07-22T12:03:48;7.53;;;5.47;;
52180;SDS011;38158;53.338;6.514;2023-07-22T12:06:14;9.85;;;5.30;;
52180;SDS011;38158;53.338;6.514;2023-07-22T12:08:47;7.47;;;5.68;;
52180;SDS011;38158;53.338;6.514;2023-07-22T12:11:21;8.30;;;5.47;;
52180;SDS011;38158;53.338;6.514;2023-07-22T12:16:38;9.52;;;5.32;;
52180;SDS011;38158;53.338;6.514;2023-07-22T12:19:06;6.95;;;4.55;;
52180;SDS011;38158;53.338;6.514;2023-07-22T12:21:33;8.48;;;4.97;;
52180;SDS011;38158;53.338;6.514;2023-07-22T12:23:59;10.52;;;5.18;;
52180;SDS011;38158;53.338;6.514;2023-07-22T12:26:25;8.60;;;5.65;;
52180;SDS011;38158;53.338;6.514;2023-07-22T12:28:51;6.80;;;4.13;;
52180;SDS011;38158;53.338;6.514;2023-07-22T12:31:17;8.85;;;5.90;;
52180;SDS011;38158;53.338;6.514;2023-07-22T12:33:42;9.15;;;6.05;;
52180;SDS011;38158;53.338;6.514;2023-07-22T12:36:08;8.93;;;4.97;;
52180;SDS011;38158;53.338;6.514;2023-07-22T12:38:34;8.63;;;6.43;;
52180;SDS011;38158;53.338;6.514;2023-07-22T12:41:01;9.57;;;6.25;;
52180;SDS011;38158;53.338;6.514;2023-07-22T12:43:27;8.38;;;5.72;;
52180;SDS011;38158;53.338;6.514;2023-07-22T12:45:53;8.82;;;6.20;;
52180;SDS011;38158;53.338;6.514;2023-07-22T12:48:19;8.93;;;5.90;;
52180;SDS011;38158;53.338;6.514;2023-07-22T12:50:44;10.02;;;6.47;;
52180;SDS011;38158;53.338;6.514;2023-07-22T12:53:12;9.43;;;7.15;;
52180;SDS011;38158;53.338;6.514;2023-07-22T12:55:38;9.50;;;6.82;;
52180;SDS011;38158;53.338;6.514;2023-07-22T12:58:04;8.73;;;6.97;;
52180;SDS011;38158;53.338;6.514;2023-07-22T13:00:30;10.48;;;7.28;;
52180;SDS011;38158;53.338;6.514;2023-07-22T13:02:56;9.65;;;7.15;;
52180;SDS011;38158;53.338;6.514;2023-07-22T13:05:22;11.75;;;7.95;;
52180;SDS011;38158;53.338;6.514;2023-07-22T13:07:48;10.60;;;8.15;;
52180;SDS011;38158;53.338;6.514;2023-07-22T13:10:14;9.50;;;6.20;;
52180;SDS011;38158;53.338;6.514;2023-07-22T13:12:43;13.15;;;8.82;;
52180;SDS011;38158;53.338;6.514;2023-07-22T13:15:09;10.52;;;8.20;;
52180;SDS011;38158;53.338;6.514;2023-07-22T13:17:35;11.77;;;8.55;;
52180;SDS011;38158;53.338;6.514;2023-07-22T13:20:01;10.52;;;6.32;;
52180;SDS011;38158;53.338;6.514;2023-07-22T13:22:32;12.77;;;6.90;;
52180;SDS011;38158;53.338;6.514;2023-07-22T13:24:58;9.47;;;7.20;;
52180;SDS011;38158;53.338;6.514;2023-07-22T13:27:24;10.38;;;7.38;;
52180;SDS011;38158;53.338;6.514;2023-07-22T13:29:49;10.23;;;8.05;;
52180;SDS011;38158;53.338;6.514;2023-07-22T13:32:15;10.13;;;7.13;;
52180;SDS011;38158;53.338;6.514;2023-07-22T13:34:41;10.90;;;8.15;;
52180;SDS011;38158;53.338;6.514;2023-07-22T13:37:06;9.32;;;7.30;;
52180;SDS011;38158;53.338;6.514;2023-07-22T13:39:32;9.73;;;7.05;;
52180;SDS011;38158;53.338;6.514;2023-07-22T13:41:58;10.00;;;6.50;;
52180;SDS011;38158;53.338;6.514;2023-07-22T13:44:24;9.80;;;6.22;;
52180;SDS011;38158;53.338;6.514;2023-07-22T13:46:50;9.43;;;5.85;;
52180;SDS011;38158;53.338;6.514;2023-07-22T13:49:15;9.48;;;6.57;;
52180;SDS011;38158;53.338;6.514;2023-07-22T13:51:42;11.10;;;6.45;;
52180;SDS011;38158;53.338;6.514;2023-07-22T13:54:08;9.80;;;6.90;;
52180;SDS011;38158;53.338;6.514;2023-07-22T13:56:34;10.38;;;6.32;;
52180;SDS011;38158;53.338;6.514;2023-07-22T13:59:00;9.13;;;6.70;;
52180;SDS011;38158;53.338;6.514;2023-07-22T14:01:28;9.98;;;7.25;;
52180;SDS011;38158;53.338;6.514;2023-07-22T14:03:54;9.18;;;6.45;;
52180;SDS011;38158;53.338;6.514;2023-07-22T14:06:20;8.00;;;4.18;;
52180;SDS011;38158;53.338;6.514;2023-07-22T14:08:46;5.97;;;2.88;;
52180;SDS011;38158;53.338;6.514;2023-07-22T14:11:11;5.93;;;2.60;;
52180;SDS011;38158;53.338;6.514;2023-07-22T14:13:37;5.07;;;2.67;;
52180;SDS011;38158;53.338;6.514;2023-07-22T14:16:03;7.45;;;4.10;;
52180;SDS011;38158;53.338;6.514;2023-07-22T14:18:29;5.43;;;2.92;;
52180;SDS011;38158;53.338;6.514;2023-07-22T14:20:55;6.80;;;3.47;;
52180;SDS011;38158;53.338;6.514;2023-07-22T14:23:20;5.45;;;2.90;;
52180;SDS011;38158;53.338;6.514;2023-07-22T14:25:46;5.28;;;2.67;;
52180;SDS011;38158;53.338;6.514;2023-07-22T14:28:12;5.45;;;3.10;;
52180;SDS011;38158;53.338;6.514;2023-07-22T14:30:38;8.52;;;4.32;;
52180;SDS011;38158;53.338;6.514;2023-07-22T14:33:03;8.80;;;3.58;;
52180;SDS011;38158;53.338;6.514;2023-07-22T14:35:29;8.18;;;3.40;;
52180;SDS011;38158;53.338;6.514;2023-07-22T14:37:57;7.93;;;3.35;;
52180;SDS011;38158;53.338;6.514;2023-07-22T14:40:24;7.00;;;3.83;;
52180;SDS011;38158;53.338;6.514;2023-07-22T14:42:50;7.53;;;3.55;;
52180;SDS011;38158;53.338;6.514;2023-07-22T14:45:16;6.65;;;3.33;;
52180;SDS011;38158;53.338;6.514;2023-07-22T14:47:42;9.38;;;4.13;;
52180;SDS011;38158;53.338;6.514;2023-07-22T14:50:08;8.70;;;3.78;;
52180;SDS011;38158;53.338;6.514;2023-07-22T14:52:34;6.80;;;3.95;;
52180;SDS011;38158;53.338;6.514;2023-07-22T14:55:00;6.68;;;3.78;;
52180;SDS011;38158;53.338;6.514;2023-07-22T14:57:27;7.38;;;3.58;;
52180;SDS011;38158;53.338;6.514;2023-07-22T14:59:55;10.43;;;4.32;;
52180;SDS011;38158;53.338;6.514;2023-07-22T15:02:21;10.40;;;3.53;;